createdAt,value
2019-01-09T00:01:01.012Z,2.80
2019-01-09T00:03:28.647Z,2.70
2019-01-09T00:05:56.321Z,2.70
2019-01-09T00:08:23.961Z,2.80
2019-01-09T00:10:51.598Z,2.80
2019-01-09T00:13:19.377Z,2.70
2019-01-09T00:15:47.030Z,2.70
2019-01-09T00:18:14.669Z,2.60
2019-01-09T00:20:42.363Z,2.60
2019-01-09T00:23:10.069Z,2.60
2019-01-09T00:25:37.735Z,2.60
2019-01-09T00:28:05.403Z,2.50
2019-01-09T00:30:33.061Z,2.50
2019-01-09T00:33:00.720Z,2.40
2019-01-09T00:35:37.012Z,2.40
2019-01-09T00:37:57.868Z,2.40
2019-01-09T00:40:25.685Z,2.30
2019-01-09T00:42:53.346Z,2.20
2019-01-09T00:45:21.100Z,2.20
2019-01-09T00:47:48.784Z,2.20
2019-01-09T00:50:16.423Z,2.10
2019-01-09T00:52:44.092Z,2.10
2019-01-09T00:55:11.755Z,2.10
2019-01-09T00:57:39.515Z,2.00
2019-01-09T01:00:10.016Z,2.00
2019-01-09T01:03:13.916Z,2.00
2019-01-09T01:06:09.695Z,2.00
2019-01-09T01:09:12.209Z,2.00
2019-01-09T01:12:09.371Z,1.90
2019-01-09T01:15:26.684Z,1.90
2019-01-09T01:18:17.146Z,1.90
2019-01-09T01:20:54.345Z,1.90
2019-01-09T01:23:58.152Z,1.90
2019-01-09T01:26:35.079Z,1.80
2019-01-09T01:29:39.826Z,1.90
2019-01-09T01:32:37.067Z,1.80
2019-01-09T01:35:24.615Z,1.80
2019-01-09T01:38:24.582Z,1.80
2019-01-09T01:41:02.292Z,1.80
2019-01-09T01:43:45.796Z,1.90
2019-01-09T01:47:04.475Z,1.90
2019-01-09T01:49:59.486Z,1.90
2019-01-09T01:52:51.205Z,1.90
2019-01-09T01:55:42.884Z,1.90
2019-01-09T01:58:27.516Z,1.90
2019-01-09T02:01:48.571Z,1.90
2019-01-09T02:04:56.425Z,1.90
2019-01-09T02:08:19.907Z,2.00
2019-01-09T02:11:15.016Z,2.00
2019-01-09T02:14:04.403Z,2.00
2019-01-09T02:17:12.188Z,2.00
2019-01-09T02:20:02.797Z,2.00
2019-01-09T02:22:57.491Z,2.00
2019-01-09T02:26:09.129Z,2.10
2019-01-09T02:29:36.882Z,2.20
2019-01-09T02:32:32.186Z,2.30
2019-01-09T02:34:59.848Z,2.50
2019-01-09T02:37:27.938Z,2.50
2019-01-09T02:39:55.685Z,2.60
2019-01-09T02:42:23.305Z,2.60
2019-01-09T02:44:51.097Z,2.60
2019-01-09T02:47:18.769Z,2.60
2019-01-09T02:49:46.496Z,2.60
2019-01-09T02:52:14.154Z,2.60
2019-01-09T02:54:41.785Z,2.60
2019-01-09T02:57:09.454Z,2.60
2019-01-09T02:59:37.155Z,2.60
2019-01-09T03:02:04.812Z,2.60
2019-01-09T03:04:32.473Z,2.60
2019-01-09T03:07:00.184Z,2.60
2019-01-09T03:09:27.853Z,2.60
2019-01-09T03:11:55.613Z,2.60
2019-01-09T03:14:23.281Z,2.60
2019-01-09T03:16:50.977Z,2.60
2019-01-09T03:19:18.637Z,2.60
2019-01-09T03:21:46.270Z,2.60
2019-01-09T03:24:13.980Z,2.60
2019-01-09T03:26:41.664Z,2.60
2019-01-09T03:29:09.350Z,2.70
2019-01-09T03:31:37.017Z,2.70
2019-01-09T03:34:04.684Z,2.70
2019-01-09T03:36:33.223Z,2.70
2019-01-09T03:39:01.130Z,2.80
2019-01-09T03:41:28.834Z,2.80
2019-01-09T03:43:56.498Z,2.80
2019-01-09T03:46:24.166Z,2.90
2019-01-09T03:48:51.823Z,2.90
2019-01-09T03:51:19.525Z,3.00
2019-01-09T03:53:47.233Z,3.00
2019-01-09T03:56:14.947Z,3.00
2019-01-09T03:58:42.591Z,3.00
2019-01-09T04:01:10.257Z,3.00
2019-01-09T04:03:37.900Z,3.00
2019-01-09T04:06:05.574Z,3.00
2019-01-09T04:08:33.248Z,3.00
2019-01-09T04:11:00.909Z,3.00
2019-01-09T04:13:28.560Z,3.00
2019-01-09T04:15:56.406Z,2.90
2019-01-09T04:18:24.064Z,2.90
2019-01-09T04:20:51.699Z,2.90
2019-01-09T04:23:19.372Z,2.80
2019-01-09T04:25:47.060Z,2.90
2019-01-09T04:28:14.723Z,2.90
2019-01-09T04:30:42.353Z,3.00
2019-01-09T04:33:10.057Z,2.90
2019-01-09T04:35:37.736Z,2.90
2019-01-09T04:38:05.506Z,3.00
2019-01-09T04:40:33.212Z,3.00
2019-01-09T04:43:00.854Z,3.00
2019-01-09T04:45:28.577Z,2.90
2019-01-09T04:47:56.190Z,2.90
2019-01-09T04:50:23.853Z,2.90
2019-01-09T04:52:51.516Z,2.90
2019-01-09T04:55:19.209Z,2.90
2019-01-09T04:57:46.864Z,2.90
2019-01-09T05:00:14.606Z,2.90
2019-01-09T05:02:42.224Z,2.90
2019-01-09T05:05:09.906Z,2.90
2019-01-09T05:07:37.541Z,3.00
2019-01-09T05:10:05.292Z,2.90
2019-01-09T05:12:32.936Z,3.00
2019-01-09T05:15:01.294Z,3.00
2019-01-09T05:17:28.993Z,2.90
2019-01-09T05:19:56.640Z,2.90
2019-01-09T05:22:24.345Z,2.90
2019-01-09T05:24:52.029Z,2.90
2019-01-09T05:27:19.678Z,2.90
2019-01-09T05:29:47.358Z,2.90
2019-01-09T05:32:15.142Z,2.80
2019-01-09T05:34:42.817Z,2.80
2019-01-09T05:37:10.508Z,2.80
2019-01-09T05:39:39.827Z,2.70
2019-01-09T05:42:07.668Z,2.70
2019-01-09T05:44:35.320Z,2.60
2019-01-09T05:47:02.962Z,2.60
2019-01-09T05:49:30.645Z,2.60
2019-01-09T05:51:58.452Z,2.60
2019-01-09T05:54:26.096Z,2.50
2019-01-09T05:56:53.779Z,2.50
2019-01-09T05:59:21.455Z,2.40
2019-01-09T06:01:49.144Z,2.40
2019-01-09T06:04:16.815Z,2.40
2019-01-09T06:06:44.492Z,2.40
2019-01-09T06:09:12.141Z,2.50
2019-01-09T06:11:39.791Z,2.40
2019-01-09T06:14:07.532Z,2.40
2019-01-09T06:16:35.204Z,2.40
2019-01-09T06:19:02.843Z,2.40
2019-01-09T06:21:30.543Z,2.30
2019-01-09T06:23:58.191Z,2.40
2019-01-09T06:26:26.116Z,2.40
2019-01-09T06:28:53.797Z,2.30
2019-01-09T06:31:21.460Z,2.30
2019-01-09T06:33:49.165Z,2.30
2019-01-09T06:36:16.824Z,2.30
2019-01-09T06:38:44.525Z,2.30
2019-01-09T06:41:12.269Z,2.20
2019-01-09T06:43:39.917Z,2.20
2019-01-09T06:46:07.629Z,2.10
2019-01-09T06:48:35.283Z,2.20
2019-01-09T06:51:02.936Z,2.20
2019-01-09T06:53:30.598Z,2.20
2019-01-09T06:55:58.409Z,2.30
2019-01-09T06:58:26.021Z,2.30
2019-01-09T07:00:53.686Z,2.30
2019-01-09T07:03:21.373Z,2.30
2019-01-09T07:05:49.037Z,2.20
2019-01-09T07:08:16.752Z,2.30
2019-01-09T07:10:45.491Z,2.30
2019-01-09T07:13:13.169Z,2.30
2019-01-09T07:15:40.837Z,2.30
2019-01-09T07:18:08.511Z,2.30
2019-01-09T07:20:36.269Z,2.30
2019-01-09T07:23:04.042Z,2.30
2019-01-09T07:25:31.696Z,2.30
2019-01-09T07:27:59.365Z,2.30
2019-01-09T07:30:27.112Z,2.40
2019-01-09T07:32:54.787Z,2.40
2019-01-09T07:35:22.424Z,2.40
2019-01-09T07:37:50.153Z,2.40
2019-01-09T07:40:18.900Z,2.40
2019-01-09T07:42:46.688Z,2.40
2019-01-09T07:45:14.338Z,2.40
2019-01-09T07:47:42.040Z,2.40
2019-01-09T07:50:09.671Z,2.40
2019-01-09T07:52:37.384Z,2.50
2019-01-09T07:55:05.252Z,2.50
2019-01-09T07:57:32.902Z,2.40
2019-01-09T08:00:00.702Z,2.50
2019-01-09T08:02:28.367Z,2.40
2019-01-09T08:04:56.060Z,2.40
2019-01-09T08:07:23.694Z,2.50
2019-01-09T08:09:51.376Z,2.40
2019-01-09T08:12:18.997Z,2.40
2019-01-09T08:14:46.667Z,2.50
2019-01-09T08:17:14.359Z,2.40
2019-01-09T08:19:42.014Z,2.40
2019-01-09T08:22:09.701Z,2.40
2019-01-09T08:24:37.516Z,2.40
2019-01-09T08:27:05.169Z,2.30
2019-01-09T08:29:32.804Z,2.40
2019-01-09T08:32:00.525Z,2.30
2019-01-09T08:34:28.178Z,2.30
2019-01-09T08:36:55.845Z,2.30
2019-01-09T08:39:23.495Z,2.30
2019-01-09T08:41:51.681Z,2.30
2019-01-09T08:44:19.379Z,2.20
2019-01-09T08:46:47.054Z,2.30
2019-01-09T08:49:14.852Z,2.30
2019-01-09T08:51:42.704Z,2.30
2019-01-09T08:54:10.363Z,2.40
2019-01-09T08:56:38.062Z,2.40
2019-01-09T08:59:05.701Z,2.50
2019-01-09T09:01:33.408Z,2.50
2019-01-09T09:04:01.085Z,2.50
2019-01-09T09:06:28.856Z,2.60
2019-01-09T09:08:57.051Z,2.60
2019-01-09T09:11:24.689Z,2.60
2019-01-09T09:13:52.405Z,2.70
2019-01-09T09:16:20.086Z,2.70
2019-01-09T09:18:47.738Z,2.70
2019-01-09T09:21:15.385Z,2.80
2019-01-09T09:23:46.035Z,2.70
2019-01-09T09:26:13.705Z,2.80
2019-01-09T09:28:41.352Z,2.80
2019-01-09T09:31:09.268Z,2.80
2019-01-09T09:33:37.576Z,2.80
2019-01-09T09:36:05.292Z,2.90
2019-01-09T09:38:32.928Z,2.90
2019-01-09T09:41:00.618Z,2.90
2019-01-09T09:43:28.281Z,2.90
2019-01-09T09:45:55.934Z,2.90
2019-01-09T09:48:23.683Z,2.90
2019-01-09T09:50:51.331Z,2.90
2019-01-09T09:53:18.972Z,2.90
2019-01-09T09:55:46.673Z,2.90
2019-01-09T09:58:14.299Z,2.90
2019-01-09T10:00:41.975Z,2.90
2019-01-09T10:03:09.636Z,2.90
2019-01-09T10:05:37.297Z,2.90
2019-01-09T10:08:04.921Z,2.90
2019-01-09T10:10:32.605Z,3.00
2019-01-09T10:13:00.235Z,3.00
2019-01-09T10:15:27.969Z,3.00
2019-01-09T10:17:55.601Z,3.10
2019-01-09T10:20:23.269Z,3.10
2019-01-09T10:22:50.950Z,3.10
2019-01-09T10:25:18.623Z,3.10
2019-01-09T10:27:46.336Z,3.10
2019-01-09T10:30:15.726Z,3.10
2019-01-09T10:32:43.417Z,3.10
2019-01-09T10:35:11.412Z,3.10
2019-01-09T10:37:39.142Z,3.10
2019-01-09T10:40:08.576Z,3.20
2019-01-09T10:42:36.237Z,3.20
2019-01-09T10:45:04.904Z,3.20
2019-01-09T10:47:32.539Z,3.20
2019-01-09T10:50:00.286Z,3.20
2019-01-09T10:52:27.981Z,3.20
2019-01-09T10:54:55.683Z,3.20
2019-01-09T10:57:23.345Z,3.10
2019-01-09T10:59:51.033Z,3.20
2019-01-09T11:02:18.714Z,3.20
2019-01-09T11:04:46.492Z,3.20
2019-01-09T11:07:14.173Z,3.20
2019-01-09T11:09:41.842Z,3.20
2019-01-09T11:12:09.502Z,3.20
2019-01-09T11:14:37.148Z,3.20
2019-01-09T11:17:04.849Z,3.20
2019-01-09T11:19:32.483Z,3.20
2019-01-09T11:22:00.416Z,3.20
2019-01-09T11:24:28.107Z,3.20
2019-01-09T11:26:55.792Z,3.20
2019-01-09T11:29:23.506Z,3.20
2019-01-09T11:31:51.224Z,3.20
2019-01-09T11:34:18.932Z,3.20
2019-01-09T11:36:46.716Z,3.10
2019-01-09T11:39:14.441Z,3.10
2019-01-09T11:41:42.136Z,3.10
2019-01-09T11:44:09.787Z,3.10
2019-01-09T11:46:37.493Z,3.10
2019-01-09T11:49:05.165Z,3.10
2019-01-09T11:51:32.826Z,3.10
2019-01-09T11:54:00.487Z,3.10
2019-01-09T11:56:28.194Z,3.10
2019-01-09T11:58:55.869Z,3.20
2019-01-09T12:01:23.531Z,3.20
2019-01-09T12:03:51.211Z,3.10
2019-01-09T12:06:18.880Z,3.20
2019-01-09T12:08:46.682Z,3.20
2019-01-09T12:11:14.381Z,3.10
2019-01-09T12:13:42.023Z,3.10
2019-01-09T12:16:09.675Z,3.20
2019-01-09T12:18:37.335Z,3.20
2019-01-09T12:21:05.106Z,3.20
2019-01-09T12:23:32.767Z,3.20
2019-01-09T12:26:00.488Z,3.20
2019-01-09T12:28:28.144Z,3.20
2019-01-09T12:30:55.854Z,3.20
2019-01-09T12:33:23.523Z,3.20
2019-01-09T12:35:51.163Z,3.20
2019-01-09T12:38:18.937Z,3.20
2019-01-09T12:40:46.636Z,3.20
2019-01-09T12:43:14.288Z,3.20
2019-01-09T12:45:41.969Z,3.20
2019-01-09T12:48:09.655Z,3.20
2019-01-09T12:50:37.323Z,3.20
2019-01-09T12:53:05.167Z,3.20
2019-01-09T12:55:32.801Z,3.20
2019-01-09T12:58:00.436Z,3.10
2019-01-09T13:00:29.092Z,3.10
2019-01-09T13:02:56.760Z,3.10
2019-01-09T13:05:24.652Z,3.00
2019-01-09T13:07:52.392Z,3.00
2019-01-09T13:10:20.068Z,3.00
2019-01-09T13:12:47.727Z,3.00
2019-01-09T13:15:15.579Z,3.10
2019-01-09T13:17:43.261Z,3.00
2019-01-09T13:20:11.761Z,3.00
2019-01-09T13:22:39.576Z,3.00
2019-01-09T13:25:07.992Z,3.00
2019-01-09T13:27:35.693Z,3.00
2019-01-09T13:30:04.976Z,3.00
2019-01-09T13:32:32.676Z,3.00
2019-01-09T13:35:00.376Z,3.00
2019-01-09T13:37:28.020Z,3.00
2019-01-09T13:39:55.668Z,2.90
2019-01-09T13:42:23.409Z,2.90
2019-01-09T13:44:51.114Z,2.90
2019-01-09T13:47:18.811Z,3.00
2019-01-09T13:49:46.480Z,2.90
2019-01-09T13:52:14.204Z,2.90
2019-01-09T13:54:41.998Z,2.90
2019-01-09T13:57:09.677Z,2.90
2019-01-09T13:59:37.340Z,2.90
2019-01-09T14:02:04.990Z,2.80
2019-01-09T14:04:32.655Z,2.80
2019-01-09T14:07:00.322Z,2.90
2019-01-09T14:09:28.057Z,2.90
2019-01-09T14:11:55.697Z,2.90
2019-01-09T14:14:23.369Z,2.80
2019-01-09T14:16:51.096Z,2.80
2019-01-09T14:19:18.677Z,2.90
2019-01-09T14:21:46.399Z,2.90
2019-01-09T14:24:14.086Z,2.90
2019-01-09T14:26:41.769Z,2.90
2019-01-09T14:29:09.434Z,2.90
2019-01-09T14:31:37.156Z,2.90
2019-01-09T14:34:04.859Z,2.90
2019-01-09T14:36:32.576Z,2.90
2019-01-09T14:39:00.259Z,2.90
2019-01-09T14:41:27.957Z,2.80
2019-01-09T14:43:55.653Z,2.80
2019-01-09T14:46:23.317Z,2.80
2019-01-09T14:48:51.025Z,2.70
2019-01-09T14:51:18.693Z,2.70
2019-01-09T14:53:46.347Z,2.70
2019-01-09T14:56:14.420Z,2.70
2019-01-09T14:58:42.288Z,2.70
2019-01-09T15:01:09.987Z,2.70
2019-01-09T15:03:37.748Z,2.70
2019-01-09T15:06:05.409Z,2.70
2019-01-09T15:08:33.057Z,2.70
2019-01-09T15:11:00.725Z,2.60
2019-01-09T15:13:28.434Z,2.60
2019-01-09T15:15:56.736Z,2.70
2019-01-09T15:18:24.494Z,2.60
2019-01-09T15:20:52.195Z,2.60
2019-01-09T15:23:19.843Z,2.60
2019-01-09T15:25:49.048Z,2.60
2019-01-09T15:28:17.063Z,2.60
2019-01-09T15:30:44.708Z,2.60
2019-01-09T15:33:12.407Z,2.60
2019-01-09T15:35:40.193Z,2.60
2019-01-09T15:38:07.900Z,2.60
2019-01-09T15:40:35.680Z,2.60
2019-01-09T15:43:03.410Z,2.60
2019-01-09T15:45:31.098Z,2.50
2019-01-09T15:47:58.783Z,2.50
2019-01-09T15:50:26.729Z,2.50
2019-01-09T15:52:55.482Z,2.50
2019-01-09T15:55:23.175Z,2.50
2019-01-09T15:57:51.547Z,2.50
2019-01-09T16:00:30.799Z,2.60
2019-01-09T16:02:58.514Z,2.60
2019-01-09T16:05:26.354Z,2.50
2019-01-09T16:07:54.044Z,2.60
2019-01-09T16:10:21.772Z,2.60
2019-01-09T16:12:49.596Z,2.50
2019-01-09T16:15:17.638Z,2.50
2019-01-09T16:17:45.793Z,2.50
2019-01-09T16:20:16.993Z,2.50
2019-01-09T16:22:44.287Z,2.50
2019-01-09T16:25:12.289Z,2.50
2019-01-09T16:27:40.030Z,2.50
2019-01-09T16:30:58.190Z,2.50
2019-01-09T16:33:25.852Z,2.50
2019-01-09T16:35:53.547Z,2.50
2019-01-09T16:38:21.231Z,2.50
2019-01-09T16:40:48.844Z,2.50
2019-01-09T16:43:16.627Z,2.50
2019-01-09T16:45:44.370Z,2.50
2019-01-09T16:48:12.153Z,2.50
2019-01-09T16:50:40.232Z,2.50
2019-01-09T16:53:07.956Z,2.50
2019-01-09T16:55:35.688Z,2.50
2019-01-09T16:58:03.822Z,2.50
2019-01-09T17:00:31.868Z,2.50
2019-01-09T17:02:59.554Z,2.50
2019-01-09T17:05:28.461Z,2.50
2019-01-09T17:07:57.205Z,2.50
2019-01-09T17:10:32.172Z,2.50
2019-01-09T17:12:54.589Z,2.50
2019-01-09T17:15:23.490Z,2.50
2019-01-09T17:17:51.312Z,2.50
2019-01-09T17:20:19.642Z,2.50
2019-01-09T17:22:47.449Z,2.50
2019-01-09T17:25:15.294Z,2.50
2019-01-09T17:27:44.030Z,2.50
2019-01-09T17:30:16.154Z,2.50
2019-01-09T17:32:43.932Z,2.50
2019-01-09T17:35:11.698Z,2.60
2019-01-09T17:37:39.418Z,2.50
2019-01-09T17:40:08.567Z,2.50
2019-01-09T17:42:36.350Z,2.50
2019-01-09T17:45:05.233Z,2.50
2019-01-09T17:47:33.031Z,2.50
2019-01-09T17:50:01.032Z,2.50
2019-01-09T17:52:28.857Z,2.50
2019-01-09T17:54:56.697Z,2.50
2019-01-09T17:57:24.971Z,2.50
2019-01-09T17:59:52.752Z,2.50
2019-01-09T18:02:20.737Z,2.50
2019-01-09T18:04:48.540Z,2.50
2019-01-09T18:07:16.429Z,2.50
2019-01-09T18:09:44.570Z,2.50
2019-01-09T18:12:12.351Z,2.50
2019-01-09T18:14:41.059Z,2.50
2019-01-09T18:17:08.720Z,2.50
2019-01-09T18:19:36.488Z,2.50
2019-01-09T18:22:04.565Z,2.50
2019-01-09T18:24:32.188Z,2.50
2019-01-09T18:26:59.908Z,2.50
2019-01-09T18:29:27.694Z,2.50
2019-01-09T18:32:23.858Z,2.50
2019-01-09T18:35:00.020Z,2.50
2019-01-09T18:37:48.909Z,2.50
2019-01-09T18:40:59.015Z,2.40
2019-01-09T18:44:17.783Z,2.40
2019-01-09T18:47:31.868Z,2.40
2019-01-09T18:50:53.195Z,2.40
2019-01-09T18:53:30.945Z,2.40
2019-01-09T18:55:58.684Z,2.40
2019-01-09T18:58:26.400Z,2.50
2019-01-09T19:00:54.055Z,2.50
2019-01-09T19:03:21.712Z,2.50
2019-01-09T19:05:49.484Z,2.40
2019-01-09T19:08:17.376Z,2.40
2019-01-09T19:10:45.115Z,2.50
2019-01-09T19:13:12.730Z,2.50
2019-01-09T19:15:40.416Z,2.50
2019-01-09T19:18:08.020Z,2.50
2019-01-09T19:20:36.037Z,2.50
2019-01-09T19:23:03.812Z,2.50
2019-01-09T19:25:31.496Z,2.50
2019-01-09T19:27:59.145Z,2.50
2019-01-09T19:30:29.044Z,2.40
2019-01-09T19:32:56.969Z,2.50
2019-01-09T19:35:25.908Z,2.50
2019-01-09T19:37:53.665Z,2.50
2019-01-09T19:40:21.374Z,2.50
2019-01-09T19:42:49.130Z,2.40
2019-01-09T19:45:16.776Z,2.40
2019-01-09T19:47:44.597Z,2.40
2019-01-09T19:50:16.093Z,2.50
2019-01-09T19:52:44.018Z,2.40
2019-01-09T19:55:12.225Z,2.40
2019-01-09T19:57:39.972Z,2.40
2019-01-09T20:00:11.413Z,2.40
2019-01-09T20:02:39.089Z,2.40
2019-01-09T20:05:07.285Z,2.40
2019-01-09T20:07:35.023Z,2.40
2019-01-09T20:10:03.628Z,2.40
2019-01-09T20:12:31.333Z,2.40
2019-01-09T20:14:58.978Z,2.40
2019-01-09T20:17:26.767Z,2.40
2019-01-09T20:19:54.449Z,2.40
2019-01-09T20:22:22.286Z,2.40
2019-01-09T20:24:50.050Z,2.40
2019-01-09T20:27:17.738Z,2.40
2019-01-09T20:29:45.488Z,2.40
2019-01-09T20:32:13.170Z,2.40
2019-01-09T20:34:40.817Z,2.40
2019-01-09T20:37:08.548Z,2.40
2019-01-09T20:39:36.349Z,2.30
2019-01-09T20:42:05.015Z,2.40
2019-01-09T20:44:32.716Z,2.30
2019-01-09T20:47:00.433Z,2.30
2019-01-09T20:49:28.130Z,2.30
2019-01-09T20:51:55.751Z,2.30
2019-01-09T20:54:23.559Z,2.30
2019-01-09T20:56:51.130Z,2.30
2019-01-09T20:59:18.803Z,2.30
2019-01-09T21:01:46.509Z,2.30
2019-01-09T21:04:14.208Z,2.30
2019-01-09T21:06:41.952Z,2.30
2019-01-09T21:09:09.720Z,2.30
2019-01-09T21:11:44.134Z,2.30
2019-01-09T21:14:06.831Z,2.30
2019-01-09T21:16:34.503Z,2.20
2019-01-09T21:19:02.140Z,2.30
2019-01-09T21:21:29.844Z,2.20
2019-01-09T21:23:57.502Z,2.20
2019-01-09T21:26:25.226Z,2.30
2019-01-09T21:28:52.876Z,2.20
2019-01-09T21:31:20.563Z,2.20
2019-01-09T21:33:48.246Z,2.30
2019-01-09T21:36:16.065Z,2.30
2019-01-09T21:38:43.960Z,2.30
2019-01-09T21:41:12.055Z,2.20
2019-01-09T21:43:39.878Z,2.20
2019-01-09T21:46:07.709Z,2.20
2019-01-09T21:48:35.332Z,2.20
2019-01-09T21:51:03.231Z,2.20
2019-01-09T21:53:30.917Z,2.20
2019-01-09T21:55:58.820Z,2.10
2019-01-09T21:58:26.432Z,2.20
2019-01-09T22:00:54.078Z,2.10
2019-01-09T22:03:21.807Z,2.10
2019-01-09T22:05:49.584Z,2.10
2019-01-09T22:08:17.334Z,2.10
2019-01-09T22:10:45.037Z,2.10
2019-01-09T22:13:12.696Z,2.00
2019-01-09T22:15:40.540Z,2.00
2019-01-09T22:18:08.233Z,2.00
2019-01-09T22:20:35.883Z,1.90
2019-01-09T22:23:03.608Z,1.90
2019-01-09T22:25:31.295Z,1.90
2019-01-09T22:27:59.043Z,1.90
2019-01-09T22:30:27.301Z,1.90
2019-01-09T22:32:55.031Z,1.90
2019-01-09T22:35:22.813Z,1.90
2019-01-09T22:37:50.489Z,1.90
2019-01-09T22:40:20.885Z,1.90
2019-01-09T22:42:48.573Z,1.90
2019-01-09T22:45:16.645Z,1.80
2019-01-09T22:47:44.329Z,1.80
2019-01-09T22:50:14.892Z,1.80
2019-01-09T22:52:42.575Z,1.80
2019-01-09T22:55:10.324Z,1.80
2019-01-09T22:57:38.202Z,1.80
2019-01-09T23:00:32.000Z,1.80
2019-01-09T23:02:59.798Z,1.80
2019-01-09T23:05:27.463Z,1.80
2019-01-09T23:07:55.189Z,1.80
2019-01-09T23:10:22.853Z,1.70
2019-01-09T23:12:50.557Z,1.80
2019-01-09T23:15:18.249Z,1.80
2019-01-09T23:17:45.876Z,1.80
2019-01-09T23:20:13.771Z,1.80
2019-01-09T23:22:41.426Z,1.70
2019-01-09T23:25:09.308Z,1.80
2019-01-09T23:27:36.976Z,1.80
2019-01-09T23:30:08.408Z,1.80
2019-01-09T23:32:36.069Z,1.70
2019-01-09T23:35:04.931Z,1.70
2019-01-09T23:37:32.597Z,1.70
2019-01-09T23:40:00.273Z,1.70
2019-01-09T23:42:30.491Z,1.70
2019-01-09T23:44:57.437Z,1.70
2019-01-09T23:47:25.097Z,1.70
2019-01-09T23:49:52.764Z,1.70
2019-01-09T23:52:20.561Z,1.70
2019-01-09T23:54:48.216Z,1.70
2019-01-09T23:57:15.879Z,1.70
2019-01-09T23:59:43.586Z,1.60
